createdAt,value
2023-01-27T00:00:03.009Z,41.00
2023-01-27T00:01:02.998Z,33.29
2023-01-27T00:02:02.990Z,29.70
2023-01-27T00:03:03.013Z,40.90
2023-01-27T00:04:02.999Z,36.50
2023-01-27T00:05:02.957Z,27.10
2023-01-27T00:06:03.049Z,33.20
2023-01-27T00:07:02.943Z,39.00
2023-01-27T00:08:02.934Z,22.50
2023-01-27T00:09:03.139Z,42.59
2023-01-27T00:10:02.912Z,36.00
2023-01-27T00:11:03.058Z,26.29
2023-01-27T00:12:02.897Z,34.59
2023-01-27T00:13:03.107Z,42.70
2023-01-27T00:14:02.873Z,19.00
2023-01-27T00:15:02.884Z,40.20
2023-01-27T00:16:03.066Z,33.50
2023-01-27T00:17:02.864Z,32.50
2023-01-27T00:18:02.860Z,33.20
2023-01-27T00:19:02.812Z,46.79
2023-01-27T00:20:04.004Z,35.59
2023-01-27T00:21:02.823Z,29.50
2023-01-27T00:22:02.793Z,44.40
2023-01-27T00:23:02.773Z,34.09
2023-01-27T00:24:02.825Z,47.09
2023-01-27T00:25:02.778Z,46.40
2023-01-27T00:26:02.742Z,31.70
2023-01-27T00:27:02.739Z,44.59
2023-01-27T00:28:02.718Z,28.39
2023-01-27T00:29:02.938Z,30.50
2023-01-27T00:30:02.710Z,44.50
2023-01-27T00:31:02.835Z,40.70
2023-01-27T00:32:02.689Z,29.20
2023-01-27T00:33:02.694Z,34.29
2023-01-27T00:34:02.680Z,43.50
2023-01-27T00:35:02.663Z,29.79
2023-01-27T00:36:08.857Z,61.79
2023-01-27T00:37:02.741Z,43.00
2023-01-27T00:38:02.624Z,37.00
2023-01-27T00:39:02.618Z,52.40
2023-01-27T00:40:02.614Z,44.50
2023-01-27T00:41:02.598Z,39.90
2023-01-27T00:42:02.609Z,50.40
2023-01-27T00:43:08.580Z,42.20
2023-01-27T00:44:02.561Z,38.20
2023-01-27T00:45:08.560Z,64.90
2023-01-27T00:46:02.539Z,43.90
2023-01-27T00:47:02.559Z,33.79
2023-01-27T00:48:02.530Z,49.79
2023-01-27T00:49:02.720Z,35.20
2023-01-27T00:50:08.528Z,45.40
2023-01-27T00:51:02.494Z,49.40
2023-01-27T00:52:02.472Z,45.70
2023-01-27T00:53:02.476Z,38.70
2023-01-27T00:54:02.466Z,44.09
2023-01-27T00:55:02.447Z,54.79
2023-01-27T00:56:08.451Z,35.50
2023-01-27T00:57:02.628Z,53.09
2023-01-27T00:58:02.832Z,46.00
2023-01-27T00:59:02.421Z,51.59
2023-01-27T01:00:02.407Z,44.40
2023-01-27T01:01:02.393Z,49.70
2023-01-27T01:02:02.662Z,50.50
2023-01-27T01:03:02.435Z,29.50
2023-01-27T01:04:02.364Z,58.70
2023-01-27T01:05:02.401Z,45.70
2023-01-27T01:06:02.352Z,26.29
2023-01-27T01:07:02.320Z,45.70
2023-01-27T01:08:02.318Z,50.20
2023-01-27T01:09:02.339Z,25.50
2023-01-27T01:10:02.312Z,58.50
2023-01-27T01:11:02.290Z,49.59
2023-01-27T01:12:04.333Z,53.09
2023-01-27T01:13:02.268Z,32.00
2023-01-27T01:14:02.272Z,40.79
2023-01-27T01:15:02.247Z,44.20
2023-01-27T01:16:02.330Z,35.40
2023-01-27T01:17:02.220Z,43.90
2023-01-27T01:18:02.223Z,30.50
2023-01-27T01:19:02.419Z,39.29
2023-01-27T01:20:02.286Z,44.20
2023-01-27T01:21:08.212Z,29.70
2023-01-27T01:22:04.270Z,45.90
2023-01-27T01:23:02.173Z,49.59
2023-01-27T01:24:02.252Z,34.09
2023-01-27T01:25:02.154Z,36.40
2023-01-27T01:26:02.204Z,49.29
2023-01-27T01:27:02.120Z,31.29
2023-01-27T01:28:02.126Z,46.79
2023-01-27T01:29:02.119Z,48.70
2023-01-27T01:30:02.298Z,38.90
2023-01-27T01:31:02.223Z,34.50
2023-01-27T01:32:02.079Z,37.09
2023-01-27T01:33:02.083Z,48.50
2023-01-27T01:34:02.065Z,31.20
2023-01-27T01:35:02.062Z,47.79
2023-01-27T01:36:02.030Z,35.59
2023-01-27T01:37:02.023Z,33.09
2023-01-27T01:38:02.007Z,41.70
2023-01-27T01:39:01.999Z,43.70
2023-01-27T01:40:02.004Z,27.70
2023-01-27T01:41:02.212Z,47.79
2023-01-27T01:42:01.978Z,28.10
2023-01-27T01:43:01.997Z,54.50
2023-01-27T01:44:01.956Z,52.40
2023-01-27T01:45:01.945Z,33.79
2023-01-27T01:46:01.943Z,56.20
2023-01-27T01:47:01.912Z,39.50
2023-01-27T01:48:01.905Z,40.09
2023-01-27T01:49:01.903Z,55.29
2023-01-27T01:50:01.883Z,50.29
2023-01-27T01:51:01.895Z,40.70
2023-01-27T01:52:01.857Z,51.90
2023-01-27T01:53:01.857Z,24.29
2023-01-27T01:54:01.834Z,62.40
2023-01-27T01:55:01.850Z,32.79
2023-01-27T01:56:07.832Z,56.00
2023-01-27T01:57:01.821Z,50.20
2023-01-27T01:58:01.819Z,33.40
2023-01-27T01:59:01.822Z,52.09
2023-01-27T02:00:01.801Z,65.69
2023-01-27T02:01:01.848Z,38.40
2023-01-27T02:02:01.840Z,56.20
2023-01-27T02:03:01.754Z,45.70
2023-01-27T02:04:01.747Z,38.79
2023-01-27T02:05:01.742Z,68.30
2023-01-27T02:06:01.737Z,45.00
2023-01-27T02:07:01.754Z,65.30
2023-01-27T02:08:01.703Z,55.29
2023-01-27T02:09:01.786Z,40.79
2023-01-27T02:10:01.674Z,63.59
2023-01-27T02:11:01.659Z,27.39
2023-01-27T02:12:01.661Z,62.59
2023-01-27T02:13:01.644Z,42.29
2023-01-27T02:14:07.651Z,51.29
2023-01-27T02:15:01.648Z,71.59
2023-01-27T02:16:01.617Z,35.09
2023-01-27T02:17:01.603Z,37.20
2023-01-27T02:18:01.596Z,52.90
2023-01-27T02:19:01.693Z,45.20
2023-01-27T02:20:01.603Z,53.40
2023-01-27T02:21:01.589Z,47.50
2023-01-27T02:22:01.594Z,34.79
2023-01-27T02:23:01.624Z,47.29
2023-01-27T02:24:01.639Z,47.50
2023-01-27T02:25:01.574Z,27.79
2023-01-27T02:26:01.515Z,49.90
2023-01-27T02:27:01.518Z,46.00
2023-01-27T02:28:01.502Z,45.79
2023-01-27T02:29:01.496Z,55.90
2023-01-27T02:30:01.488Z,35.29
2023-01-27T02:31:01.616Z,51.20
2023-01-27T02:32:01.474Z,49.50
2023-01-27T02:33:01.455Z,49.50
2023-01-27T02:34:01.443Z,49.09
2023-01-27T02:35:01.610Z,59.20
2023-01-27T02:36:01.409Z,39.59
2023-01-27T02:37:01.404Z,51.79
2023-01-27T02:38:01.394Z,50.00
2023-01-27T02:39:01.403Z,36.70
2023-01-27T02:40:01.374Z,56.00
2023-01-27T02:41:01.380Z,33.09
2023-01-27T02:42:01.354Z,51.70
2023-01-27T02:43:01.352Z,39.50
2023-01-27T02:44:07.345Z,47.59
2023-01-27T02:45:01.423Z,49.00
2023-01-27T02:46:01.397Z,33.09
2023-01-27T02:47:01.319Z,54.50
2023-01-27T02:48:01.298Z,44.40
2023-01-27T02:49:07.495Z,45.20
2023-01-27T02:50:01.289Z,51.29
2023-01-27T02:51:01.285Z,21.79
2023-01-27T02:52:01.259Z,52.40
2023-01-27T02:53:01.448Z,53.50
2023-01-27T02:54:01.233Z,29.39
2023-01-27T02:55:01.243Z,52.00
2023-01-27T02:56:01.283Z,60.70
2023-01-27T02:57:01.208Z,34.29
2023-01-27T02:58:01.193Z,21.89
2023-01-27T02:59:01.185Z,66.00
2023-01-27T03:00:01.182Z,48.40
2023-01-27T03:01:01.169Z,27.20
2023-01-27T03:02:01.148Z,49.29
2023-01-27T03:03:01.143Z,30.39
2023-01-27T03:04:01.125Z,53.29
2023-01-27T03:05:01.133Z,55.59
2023-01-27T03:06:01.116Z,31.10
2023-01-27T03:07:01.110Z,42.79
2023-01-27T03:08:01.103Z,59.29
2023-01-27T03:09:01.083Z,40.09
2023-01-27T03:10:01.075Z,60.40
2023-01-27T03:11:01.079Z,41.59
2023-01-27T03:12:01.060Z,62.29
2023-01-27T03:13:01.095Z,42.50
2023-01-27T03:14:01.030Z,46.40
2023-01-27T03:15:01.021Z,52.50
2023-01-27T03:16:01.031Z,31.10
2023-01-27T03:17:00.997Z,61.70
2023-01-27T03:18:00.987Z,49.09
2023-01-27T03:19:00.978Z,43.29
2023-01-27T03:20:01.169Z,70.30
2023-01-27T03:21:00.954Z,28.89
2023-01-27T03:22:00.951Z,73.00
2023-01-27T03:23:01.037Z,40.59
2023-01-27T03:24:01.004Z,59.29
2023-01-27T03:25:00.907Z,42.29
2023-01-27T03:26:00.895Z,54.09
2023-01-27T03:27:00.906Z,55.59
2023-01-27T03:28:01.184Z,28.79
2023-01-27T03:29:00.874Z,68.90
2023-01-27T03:30:00.864Z,39.40
2023-01-27T03:31:01.215Z,39.00
2023-01-27T03:32:00.860Z,69.09
2023-01-27T03:33:00.830Z,37.00
2023-01-27T03:34:00.821Z,60.50
2023-01-27T03:35:06.810Z,61.59
2023-01-27T03:36:00.796Z,46.50
2023-01-27T03:37:00.786Z,60.70
2023-01-27T03:38:00.980Z,27.70
2023-01-27T03:39:00.968Z,80.69
2023-01-27T03:40:00.769Z,51.50
2023-01-27T03:41:00.745Z,75.09
2023-01-27T03:42:06.768Z,56.20
2023-01-27T03:43:00.729Z,69.50
2023-01-27T03:44:00.729Z,70.59
2023-01-27T03:45:00.715Z,37.29
2023-01-27T03:46:00.769Z,79.09
2023-01-27T03:47:00.683Z,66.90
2023-01-27T03:48:00.680Z,41.00
2023-01-27T03:49:00.764Z,79.09
2023-01-27T03:50:00.656Z,34.29
2023-01-27T03:51:00.654Z,72.80
2023-01-27T03:52:00.637Z,47.90
2023-01-27T03:53:00.616Z,77.90
2023-01-27T03:54:00.619Z,63.09
2023-01-27T03:55:00.611Z,43.09
2023-01-27T03:56:00.601Z,85.50
2023-01-27T03:57:06.742Z,45.50
2023-01-27T03:58:00.609Z,81.09
2023-01-27T03:59:00.670Z,59.29
2023-01-27T04:00:00.555Z,72.40
2023-01-27T04:01:00.543Z,72.30
2023-01-27T04:02:00.533Z,49.59
2023-01-27T04:03:00.579Z,67.19
2023-01-27T04:04:00.514Z,67.40
2023-01-27T04:05:00.498Z,69.00
2023-01-27T04:06:00.487Z,77.80
2023-01-27T04:07:00.499Z,56.09
2023-01-27T04:08:00.479Z,70.80
2023-01-27T04:09:00.463Z,38.20
2023-01-27T04:10:00.490Z,72.30
2023-01-27T04:11:06.461Z,54.00
2023-01-27T04:12:00.590Z,74.90
2023-01-27T04:13:00.428Z,69.09
2023-01-27T04:14:00.428Z,53.09
2023-01-27T04:15:00.466Z,80.19
2023-01-27T04:16:00.419Z,56.00
2023-01-27T04:17:00.394Z,74.00
2023-01-27T04:18:00.374Z,93.09
2023-01-27T04:19:00.369Z,43.29
2023-01-27T04:20:00.366Z,72.59
2023-01-27T04:21:06.341Z,45.90
2023-01-27T04:22:00.429Z,78.80
2023-01-27T04:23:00.324Z,58.00
2023-01-27T04:24:00.397Z,89.50
2023-01-27T04:25:00.372Z,81.80
2023-01-27T04:26:00.290Z,41.50
2023-01-27T04:27:00.265Z,87.40
2023-01-27T04:28:00.267Z,46.70
2023-01-27T04:29:00.267Z,92.40
2023-01-27T04:30:00.265Z,76.69
2023-01-27T04:31:00.317Z,58.20
2023-01-27T04:32:00.235Z,51.29
2023-01-27T04:33:00.211Z,73.69
2023-01-27T04:34:06.220Z,54.00
2023-01-27T04:35:00.208Z,78.69
2023-01-27T04:36:00.232Z,74.80
2023-01-27T04:37:00.375Z,54.29
2023-01-27T04:38:00.161Z,85.30
2023-01-27T04:39:00.145Z,49.09
2023-01-27T04:40:00.149Z,87.50
2023-01-27T04:41:00.150Z,78.09
2023-01-27T04:42:00.214Z,71.80
2023-01-27T04:43:00.119Z,107.90
2023-01-27T04:44:00.300Z,67.50
2023-01-27T04:45:00.135Z,82.40
2023-01-27T04:46:00.255Z,43.59
2023-01-27T04:47:00.094Z,86.30
2023-01-27T04:48:00.252Z,71.59
2023-01-27T04:49:00.049Z,83.59
2023-01-27T04:50:00.040Z,64.80
2023-01-27T04:51:00.023Z,59.09
2023-01-27T04:52:00.026Z,96.80
2023-01-27T04:53:00.010Z,79.09
2023-01-27T04:53:59.998Z,60.09
2023-01-27T04:54:59.984Z,91.30
2023-01-27T04:55:59.980Z,84.69
2023-01-27T04:57:00.178Z,100.30
2023-01-27T04:57:59.971Z,97.69
2023-01-27T04:58:59.946Z,37.90
2023-01-27T05:00:05.938Z,90.40
2023-01-27T05:00:59.937Z,59.90
2023-01-27T05:02:00.053Z,124.59
2023-01-27T05:03:06.174Z,91.00
2023-01-27T05:04:05.894Z,95.69
2023-01-27T05:05:00.095Z,93.50
2023-01-27T05:05:59.883Z,49.20
2023-01-27T05:06:59.859Z,111.19
2023-01-27T05:07:59.850Z,94.30
2023-01-27T05:08:59.962Z,89.50
2023-01-27T05:09:59.840Z,114.90
2023-01-27T05:10:59.831Z,55.00
2023-01-27T05:11:59.824Z,125.80
2023-01-27T05:12:59.820Z,103.19
2023-01-27T05:13:59.789Z,98.69
2023-01-27T05:14:59.798Z,108.40
2023-01-27T05:15:59.803Z,50.40
2023-01-27T05:16:59.839Z,121.00
2023-01-27T05:17:59.768Z,124.40
2023-01-27T05:18:59.784Z,82.19
2023-01-27T05:19:59.736Z,125.30
2023-01-27T05:20:59.742Z,70.69
2023-01-27T05:22:05.721Z,78.59
2023-01-27T05:23:05.699Z,85.19
2023-01-27T05:23:59.836Z,91.69
2023-01-27T05:24:59.677Z,99.90
2023-01-27T05:25:59.673Z,48.40
2023-01-27T05:26:59.676Z,112.00
2023-01-27T05:27:59.662Z,104.09
2023-01-27T05:28:59.676Z,77.90
2023-01-27T05:29:59.635Z,99.19
2023-01-27T05:30:59.800Z,66.59
2023-01-27T05:31:59.939Z,98.59
2023-01-27T05:32:59.597Z,54.50
2023-01-27T05:33:59.722Z,117.30
2023-01-27T05:34:59.581Z,120.69
2023-01-27T05:35:59.606Z,72.19
2023-01-27T05:36:59.555Z,105.00
2023-01-27T05:37:59.559Z,81.40
2023-01-27T05:38:59.551Z,90.69
2023-01-27T05:39:59.520Z,104.19
2023-01-27T05:40:59.521Z,48.20
2023-01-27T05:41:59.499Z,115.59
2023-01-27T05:42:59.514Z,79.00
2023-01-27T05:43:59.512Z,120.30
2023-01-27T05:44:59.474Z,90.90
2023-01-27T05:45:59.515Z,56.40
2023-01-27T05:46:59.444Z,97.59
2023-01-27T05:47:59.437Z,66.40
2023-01-27T05:48:59.432Z,97.19
2023-01-27T05:49:59.452Z,58.00
2023-01-27T05:50:59.422Z,106.50
2023-01-27T05:51:59.410Z,93.40
2023-01-27T05:52:59.385Z,81.19
2023-01-27T05:53:59.408Z,111.80
2023-01-27T05:54:59.369Z,62.79
2023-01-27T05:55:59.370Z,98.50
2023-01-27T05:56:59.346Z,97.80
2023-01-27T05:57:59.535Z,106.09
2023-01-27T05:59:05.335Z,90.50
2023-01-27T06:00:05.319Z,92.90
2023-01-27T06:00:59.305Z,98.19
2023-01-27T06:01:59.726Z,110.90
2023-01-27T06:02:59.315Z,93.80
2023-01-27T06:03:59.321Z,92.69
2023-01-27T06:04:59.254Z,123.40
2023-01-27T06:05:59.506Z,75.69
2023-01-27T06:06:59.256Z,112.19
2023-01-27T06:07:59.229Z,87.09
2023-01-27T06:08:59.225Z,104.09
2023-01-27T06:09:59.215Z,77.50
2023-01-27T06:10:59.201Z,93.09
2023-01-27T06:11:59.185Z,93.69
2023-01-27T06:12:59.191Z,70.40
2023-01-27T06:13:59.180Z,108.09
2023-01-27T06:14:59.161Z,61.00
2023-01-27T06:15:59.147Z,92.80
2023-01-27T06:16:59.137Z,91.30
2023-01-27T06:17:59.140Z,68.19
2023-01-27T06:18:59.119Z,114.69
2023-01-27T06:19:59.110Z,93.09
2023-01-27T06:20:59.123Z,96.09
2023-01-27T06:21:59.110Z,37.79
2023-01-27T06:22:59.281Z,94.40
2023-01-27T06:23:59.125Z,51.09
2023-01-27T06:24:59.073Z,97.00
2023-01-27T06:25:59.042Z,103.09
2023-01-27T06:26:59.043Z,49.20
2023-01-27T06:27:59.043Z,88.00
2023-01-27T06:28:59.106Z,105.30
2023-01-27T06:29:59.004Z,62.79
2023-01-27T06:30:59.132Z,82.69
2023-01-27T06:31:59.009Z,67.69
2023-01-27T06:33:05.009Z,97.90
2023-01-27T06:33:58.963Z,48.79
2023-01-27T06:34:58.955Z,100.19
2023-01-27T06:35:58.949Z,73.40
2023-01-27T06:36:58.933Z,102.59
2023-01-27T06:37:58.943Z,86.00
2023-01-27T06:38:58.916Z,94.00
2023-01-27T06:39:58.904Z,83.09
2023-01-27T06:40:58.894Z,77.69
2023-01-27T06:41:58.893Z,86.59
2023-01-27T06:42:58.889Z,63.79
2023-01-27T06:43:58.866Z,99.90
2023-01-27T06:44:58.797Z,60.29
2023-01-27T06:45:59.129Z,73.30
2023-01-27T06:46:58.793Z,72.69
2023-01-27T06:47:58.762Z,37.29
2023-01-27T06:48:58.757Z,82.09
2023-01-27T06:49:58.751Z,32.50
2023-01-27T06:50:58.727Z,86.59
2023-01-27T06:51:58.739Z,47.40
2023-01-27T06:52:58.716Z,81.09
2023-01-27T06:53:58.783Z,81.30
2023-01-27T06:54:58.699Z,66.09
2023-01-27T06:55:58.788Z,67.30
2023-01-27T06:57:04.674Z,79.19
2023-01-27T06:57:58.676Z,93.40
2023-01-27T06:58:58.653Z,35.59
2023-01-27T06:59:58.665Z,64.40
2023-01-27T07:01:04.644Z,46.59
2023-01-27T07:01:58.626Z,78.90
2023-01-27T07:02:58.675Z,76.00
2023-01-27T07:03:58.600Z,70.80
2023-01-27T07:04:58.591Z,62.20
2023-01-27T07:05:58.584Z,67.50
2023-01-27T07:06:58.875Z,60.79
2023-01-27T07:07:58.560Z,58.00
2023-01-27T07:08:58.549Z,69.59
2023-01-27T07:10:04.582Z,38.09
2023-01-27T07:10:58.519Z,74.69
2023-01-27T07:11:58.521Z,29.60
2023-01-27T07:12:58.720Z,60.20
2023-01-27T07:13:58.493Z,31.20
2023-01-27T07:14:58.486Z,56.59
2023-01-27T07:15:58.498Z,28.20
2023-01-27T07:17:04.491Z,54.00
2023-01-27T07:17:58.489Z,30.20
2023-01-27T07:18:58.454Z,34.09
2023-01-27T07:20:00.492Z,56.29
2023-01-27T07:20:58.430Z,26.10
2023-01-27T07:21:58.416Z,35.79
2023-01-27T07:22:58.401Z,46.70
2023-01-27T07:23:58.422Z,32.40
2023-01-27T07:24:58.381Z,44.20
2023-01-27T07:26:00.869Z,25.39
2023-01-27T07:26:58.368Z,48.09
2023-01-27T07:27:58.371Z,22.79
2023-01-27T07:28:58.345Z,36.40
2023-01-27T07:29:58.332Z,39.00
2023-01-27T07:30:58.352Z,25.70
2023-01-27T07:31:58.377Z,19.29
2023-01-27T07:32:58.294Z,36.79
2023-01-27T07:33:58.287Z,25.29
2023-01-27T07:34:58.286Z,23.10
2023-01-27T07:35:58.266Z,32.29
2023-01-27T07:36:58.280Z,28.00
2023-01-27T07:37:58.258Z,27.79
2023-01-27T07:38:58.241Z,20.29
2023-01-27T07:39:58.240Z,44.20
2023-01-27T07:40:58.218Z,25.70
2023-01-27T07:41:58.244Z,20.79
2023-01-27T07:42:58.193Z,28.39
2023-01-27T07:43:58.211Z,24.10
2023-01-27T07:44:58.183Z,35.09
2023-01-27T07:45:58.216Z,26.39
2023-01-27T07:47:04.170Z,15.50
2023-01-27T07:47:58.351Z,25.10
2023-01-27T07:48:58.132Z,22.89
2023-01-27T07:49:58.128Z,18.29
2023-01-27T07:50:58.108Z,27.29
2023-01-27T07:51:58.107Z,21.70
2023-01-27T07:52:58.113Z,31.50
2023-01-27T07:53:58.988Z,27.50
2023-01-27T07:54:58.078Z,21.10
2023-01-27T07:55:58.066Z,32.70
2023-01-27T07:56:58.076Z,18.89
2023-01-27T07:57:58.191Z,23.29
2023-01-27T07:58:58.032Z,16.29
2023-01-27T07:59:58.045Z,26.60
2023-01-27T08:00:58.059Z,17.10
2023-01-27T08:01:58.017Z,25.60
2023-01-27T08:03:04.238Z,17.60
2023-01-27T08:03:57.982Z,14.10
2023-01-27T08:04:57.974Z,20.20
2023-01-27T08:05:57.953Z,15.30
2023-01-27T08:06:57.949Z,19.10
2023-01-27T08:07:59.072Z,12.80
2023-01-27T08:08:57.950Z,16.79
2023-01-27T08:09:57.921Z,14.80
2023-01-27T08:10:57.910Z,13.10
2023-01-27T08:11:57.899Z,15.10
2023-01-27T08:12:57.907Z,14.30
2023-01-27T08:13:58.004Z,17.60
2023-01-27T08:14:57.869Z,10.10
2023-01-27T08:15:57.858Z,14.69
2023-01-27T08:16:57.843Z,12.39
2023-01-27T08:18:03.847Z,15.19
2023-01-27T08:18:57.819Z,12.30
2023-01-27T08:19:57.820Z,13.69
2023-01-27T08:20:57.804Z,12.00
2023-01-27T08:21:57.794Z,15.30
2023-01-27T08:22:57.793Z,17.39
2023-01-27T08:23:58.070Z,17.00
2023-01-27T08:24:57.766Z,13.19
2023-01-27T08:25:57.747Z,20.70
2023-01-27T08:26:57.743Z,19.29
2023-01-27T08:27:57.744Z,18.70
2023-01-27T08:28:57.738Z,12.89
2023-01-27T08:29:57.730Z,14.00
2023-01-27T08:30:57.767Z,11.50
2023-01-27T08:31:57.758Z,18.60
2023-01-27T08:32:57.689Z,12.80
2023-01-27T08:33:57.671Z,17.50
2023-01-27T08:34:57.659Z,17.00
2023-01-27T08:35:57.692Z,15.00
2023-01-27T08:36:57.638Z,16.10
2023-01-27T08:37:57.628Z,16.20
2023-01-27T08:38:57.619Z,17.29
2023-01-27T08:39:57.607Z,10.30
2023-01-27T08:40:57.608Z,14.89
2023-01-27T08:42:03.588Z,14.50
2023-01-27T08:42:57.570Z,13.19
2023-01-27T08:43:57.568Z,15.80
2023-01-27T08:44:57.549Z,17.20
2023-01-27T08:45:57.601Z,9.69
2023-01-27T08:46:57.609Z,19.79
2023-01-27T08:47:57.515Z,15.10
2023-01-27T08:48:57.511Z,16.60
2023-01-27T08:49:57.498Z,17.20
2023-01-27T08:50:57.487Z,17.60
2023-01-27T08:51:57.487Z,17.29
2023-01-27T08:52:57.463Z,18.39
2023-01-27T08:53:57.465Z,11.00
2023-01-27T08:55:03.458Z,14.80
2023-01-27T08:55:57.433Z,17.20
2023-01-27T08:57:03.434Z,15.30
2023-01-27T08:57:57.411Z,15.69
2023-01-27T08:58:57.406Z,15.00
2023-01-27T08:59:57.412Z,13.60
2023-01-27T09:00:57.531Z,14.60
2023-01-27T09:01:57.401Z,20.00
2023-01-27T09:02:57.468Z,16.20
2023-01-27T09:03:57.353Z,14.89
2023-01-27T09:04:57.357Z,11.69
2023-01-27T09:05:57.331Z,15.89
2023-01-27T09:06:57.320Z,14.00
2023-01-27T09:07:57.512Z,14.10
2023-01-27T09:08:57.303Z,11.89
2023-01-27T09:10:12.624Z,10.19
2023-01-27T09:10:58.319Z,10.19
2023-01-27T09:11:57.268Z,13.69
2023-01-27T09:12:57.252Z,11.19
2023-01-27T09:13:57.451Z,10.50
2023-01-27T09:14:57.235Z,10.50
2023-01-27T09:15:57.305Z,12.39
2023-01-27T09:16:57.230Z,12.69
2023-01-27T09:18:06.013Z,10.10
2023-01-27T09:18:57.202Z,9.30
2023-01-27T09:19:57.180Z,10.10
2023-01-27T09:20:57.210Z,10.89
2023-01-27T09:21:57.164Z,8.19
2023-01-27T09:22:57.157Z,13.80
2023-01-27T09:23:57.266Z,14.30
2023-01-27T09:25:03.140Z,13.89
2023-01-27T09:25:57.123Z,12.89
2023-01-27T09:26:59.325Z,10.10
2023-01-27T09:27:57.096Z,27.79
2023-01-27T09:28:57.093Z,18.39
2023-01-27T09:29:57.095Z,9.19
2023-01-27T09:30:57.404Z,12.80
2023-01-27T09:31:57.161Z,15.80
2023-01-27T09:32:57.048Z,15.50
2023-01-27T09:34:37.784Z,9.80
2023-01-27T09:35:37.946Z,9.60
2023-01-27T09:36:37.827Z,12.00
2023-01-27T09:37:37.727Z,10.39
2023-01-27T09:38:37.696Z,10.50
2023-01-27T09:39:37.694Z,8.39
2023-01-27T09:40:43.695Z,13.50
2023-01-27T09:41:37.676Z,15.10
2023-01-27T09:42:37.655Z,12.80
2023-01-27T09:43:37.648Z,13.50
2023-01-27T09:44:37.636Z,13.50
2023-01-27T09:45:37.626Z,14.60
2023-01-27T09:46:37.621Z,15.30
2023-01-27T09:47:37.604Z,15.00
2023-01-27T09:48:37.591Z,12.10
2023-01-27T09:49:37.590Z,16.00
2023-01-27T09:50:37.606Z,34.59
2023-01-27T09:51:37.568Z,28.10
2023-01-27T09:52:47.857Z,32.59
2023-01-27T09:53:37.547Z,24.70
2023-01-27T09:54:37.536Z,10.80
2023-01-27T09:55:37.531Z,11.50
2023-01-27T09:56:37.515Z,12.60
2023-01-27T09:57:37.508Z,15.10
2023-01-27T09:58:37.493Z,11.80
2023-01-27T09:59:37.492Z,9.69
2023-01-27T10:00:37.472Z,8.39
2023-01-27T10:01:37.613Z,21.20
2023-01-27T10:02:37.444Z,23.39
2023-01-27T10:03:37.444Z,7.69
2023-01-27T10:04:37.579Z,15.60
2023-01-27T10:05:37.430Z,13.80
2023-01-27T10:06:43.437Z,13.69
2023-01-27T10:07:37.707Z,14.10
2023-01-27T10:08:37.390Z,10.50
2023-01-27T10:09:43.590Z,9.00
2023-01-27T10:10:37.360Z,8.80
2023-01-27T10:11:37.360Z,13.60
2023-01-27T10:12:37.593Z,10.19
2023-01-27T10:13:37.331Z,15.10
2023-01-27T10:14:37.337Z,7.59
2023-01-27T10:15:37.722Z,6.90
2023-01-27T10:16:37.352Z,7.40
2023-01-27T10:17:37.298Z,6.50
2023-01-27T10:18:37.287Z,8.60
2023-01-27T10:19:37.279Z,10.89
2023-01-27T10:20:37.278Z,9.10
2023-01-27T10:21:37.471Z,7.69
2023-01-27T10:22:37.471Z,7.19
2023-01-27T10:23:37.229Z,6.09
2023-01-27T10:24:37.215Z,9.00
2023-01-27T10:25:37.212Z,8.30
2023-01-27T10:26:37.191Z,8.80
2023-01-27T10:27:37.196Z,7.40
2023-01-27T10:28:37.173Z,5.80
2023-01-27T10:29:39.237Z,6.30
2023-01-27T10:30:37.184Z,6.90
2023-01-27T10:31:37.225Z,4.69
2023-01-27T10:32:37.131Z,5.59
2023-01-27T10:33:37.124Z,5.09
2023-01-27T10:34:37.123Z,4.40
2023-01-27T10:35:37.103Z,5.19
2023-01-27T10:36:37.107Z,5.90
2023-01-27T10:37:37.083Z,6.69
2023-01-27T10:38:37.103Z,5.80
2023-01-27T10:39:37.058Z,5.40
2023-01-27T10:40:37.057Z,6.50
2023-01-27T10:41:37.139Z,6.40
2023-01-27T10:42:37.045Z,7.69
2023-01-27T10:43:37.027Z,7.19
2023-01-27T10:44:37.013Z,5.59
2023-01-27T10:45:37.016Z,7.09
2023-01-27T10:46:37.010Z,5.59
2023-01-27T10:47:37.065Z,8.69
2023-01-27T10:48:36.971Z,9.00
2023-01-27T10:49:42.971Z,11.39
2023-01-27T10:50:36.943Z,21.10
2023-01-27T10:51:36.934Z,7.50
2023-01-27T10:52:37.131Z,4.90
2023-01-27T10:53:36.905Z,7.50
2023-01-27T10:54:36.930Z,9.60
2023-01-27T10:55:36.880Z,5.00
2023-01-27T10:56:36.881Z,7.09
2023-01-27T10:57:36.880Z,3.90
2023-01-27T10:58:36.964Z,2.50
2023-01-27T10:59:36.839Z,3.59
2023-01-27T11:01:19.352Z,3.70
2023-01-27T11:01:43.903Z,4.69
2023-01-27T11:02:36.816Z,5.69
2023-01-27T11:03:36.894Z,4.69
2023-01-27T11:04:36.797Z,5.90
2023-01-27T11:05:36.788Z,3.00
2023-01-27T11:06:42.814Z,3.09
2023-01-27T11:07:36.768Z,4.30
2023-01-27T11:08:36.747Z,2.70
2023-01-27T11:09:36.845Z,3.29
2023-01-27T11:10:36.746Z,4.19
2023-01-27T11:11:36.720Z,3.29
2023-01-27T11:12:36.736Z,4.00
2023-01-27T11:13:36.689Z,3.70
2023-01-27T11:14:38.759Z,3.00
2023-01-27T11:15:36.882Z,2.90
2023-01-27T11:16:36.758Z,3.40
2023-01-27T11:17:36.655Z,2.79
2023-01-27T11:18:36.636Z,3.40
2023-01-27T11:19:36.624Z,3.29
2023-01-27T11:20:42.659Z,2.70
2023-01-27T11:21:36.642Z,2.40
2023-01-27T11:22:36.591Z,2.29
2023-01-27T11:23:42.598Z,3.40
2023-01-27T11:24:42.631Z,2.70
2023-01-27T11:25:36.772Z,2.29
2023-01-27T11:26:36.576Z,3.79
2023-01-27T11:27:42.553Z,2.00
2023-01-27T11:28:42.545Z,2.70
2023-01-27T11:29:36.723Z,2.09
2023-01-27T11:30:36.690Z,3.00
2023-01-27T11:31:38.010Z,2.90
2023-01-27T11:32:36.499Z,2.59
2023-01-27T11:33:42.487Z,1.70
2023-01-27T11:34:36.472Z,1.79
2023-01-27T11:35:36.453Z,1.70
2023-01-27T11:36:36.492Z,1.90
2023-01-27T11:37:36.439Z,2.09
2023-01-27T11:38:36.431Z,2.09
2023-01-27T11:39:36.615Z,2.90
2023-01-27T11:40:36.399Z,2.50
2023-01-27T11:41:36.393Z,2.20
2023-01-27T11:42:36.429Z,2.29
2023-01-27T11:43:36.367Z,2.29
2023-01-27T11:44:36.368Z,2.20
2023-01-27T11:45:36.467Z,1.60
2023-01-27T11:46:36.348Z,1.60
2023-01-27T11:47:36.324Z,1.90
2023-01-27T11:48:36.320Z,2.50
2023-01-27T11:49:36.311Z,1.10
2023-01-27T11:50:36.295Z,1.29
2023-01-27T11:51:36.383Z,2.40
2023-01-27T11:52:36.279Z,1.70
2023-01-27T11:53:36.270Z,1.60
2023-01-27T11:54:36.265Z,1.60
2023-01-27T11:55:36.238Z,1.79
2023-01-27T11:56:36.231Z,2.50
2023-01-27T11:57:42.471Z,1.60
2023-01-27T11:58:42.218Z,1.70
2023-01-27T11:59:36.198Z,2.09
2023-01-27T12:00:42.211Z,1.79
2023-01-27T12:01:42.180Z,2.09
2023-01-27T12:02:36.185Z,1.50
2023-01-27T12:03:36.178Z,3.20
2023-01-27T12:04:36.173Z,2.50
2023-01-27T12:05:36.154Z,1.79
2023-01-27T12:06:36.136Z,2.20
2023-01-27T12:07:36.112Z,2.09
2023-01-27T12:08:36.110Z,3.79
2023-01-27T12:09:42.195Z,2.09
2023-01-27T12:10:36.090Z,2.20
2023-01-27T12:11:36.070Z,2.50
2023-01-27T12:12:36.060Z,1.90
2023-01-27T12:13:36.068Z,2.40
2023-01-27T12:14:36.049Z,1.90
2023-01-27T12:15:36.145Z,2.09
2023-01-27T12:16:42.028Z,1.79
2023-01-27T12:17:36.011Z,2.29
2023-01-27T12:18:36.000Z,2.90
2023-01-27T12:19:35.988Z,2.00
2023-01-27T12:20:35.976Z,1.39
2023-01-27T12:21:36.016Z,1.29
2023-01-27T12:22:35.973Z,2.09
2023-01-27T12:23:35.953Z,2.29
2023-01-27T12:24:35.949Z,1.70
2023-01-27T12:25:35.918Z,1.39
2023-01-27T12:26:35.915Z,2.00
2023-01-27T12:27:35.893Z,3.20
2023-01-27T12:28:35.896Z,1.00
2023-01-27T12:29:35.916Z,1.29
2023-01-27T12:30:35.877Z,1.39
2023-01-27T12:31:36.195Z,1.00
2023-01-27T12:32:35.912Z,1.00
2023-01-27T12:33:35.847Z,1.79
2023-01-27T12:34:35.851Z,1.10
2023-01-27T12:35:35.842Z,1.39
2023-01-27T12:36:35.834Z,1.29
2023-01-27T12:37:35.899Z,2.29
2023-01-27T12:38:35.985Z,1.39
2023-01-27T12:39:35.771Z,2.00
2023-01-27T12:40:35.766Z,2.29
2023-01-27T12:41:41.768Z,1.70
2023-01-27T12:42:35.873Z,2.09
2023-01-27T12:43:35.726Z,2.00
2023-01-27T12:44:35.727Z,3.09
2023-01-27T12:45:41.737Z,3.20
2023-01-27T12:46:35.982Z,2.29
2023-01-27T12:47:37.689Z,2.09
2023-01-27T12:48:35.685Z,2.09
2023-01-27T12:49:35.665Z,3.20
2023-01-27T12:50:35.659Z,2.00
2023-01-27T12:51:35.644Z,1.60
2023-01-27T12:52:35.629Z,1.79
2023-01-27T12:53:35.616Z,2.70
2023-01-27T12:54:35.607Z,1.79
2023-01-27T12:55:41.605Z,1.20
2023-01-27T12:56:35.786Z,1.79
2023-01-27T12:57:35.596Z,1.10